METAR Data
IDs: Format: Raw Decoded Include TAF

Data at: 0414 UTC 26 May 2022

KSET 260354Z AUTO 16005KT 10SM CLR 20/17 A2973 RMK AO2 SLP064 T02000172
No TAF found for KSET

KSTL 260351Z 15007KT 10SM FEW230 21/18 A2975 RMK AO2 SLP065 T02110183

KSTL 260309Z 2603/2706 17009KT P6SM SCT025 BKN050
  FM260600 16005KT P6SM VCSH BKN035
  FM260800 15006KT P6SM SCT025 BKN040
  FM261200 15007KT 6SM -SHRA BKN025
  FM261500 20007KT P6SM VCSH BKN040